Time;durP1;ratioP1;P1;durP2;ratioP2;P2;SDS_P1;SDS_P2;PMS_P1;PMS_P2;Temp;Humidity;BMP_temperature;BMP_pressure;BME280_temperature;BME280_humidity;BME280_pressure;Samples;Min_cycle;Max_cycle;Signal;HPM_P1;HPM_P2
2022/06/20 00:00:09;;;;;;;3.88;1.45;;;15.60;99.90;;;;;;4970994;28;20070;-64
2022/06/20 00:02:42;;;;;;;6.20;1.08;;;15.60;99.90;;;;;;4970437;28;20022;-66
2022/06/20 00:05:16;;;;;;;3.95;1.50;;;15.60;99.90;;;;;;4971523;28;20109;-64
2022/06/20 00:07:43;;;;;;;3.53;1.73;;;15.80;99.90;;;;;;4970033;28;20538;-64
2022/06/20 00:10:16;;;;;;;5.97;1.80;;;15.80;99.90;;;;;;4971620;28;20105;-66
2022/06/20 00:12:44;;;;;;;4.68;1.42;;;15.90;99.90;;;;;;4971255;28;20089;-64
2022/06/20 00:15:31;;;;;;;4.57;1.50;;;16.00;99.90;;;;;;4971669;28;20042;-64
2022/06/20 00:18:00;;;;;;;4.88;1.45;;;16.20;99.90;;;;;;4965968;28;20035;-63
2022/06/20 00:20:28;;;;;;;8.82;1.52;;;16.40;99.90;;;;;;4964234;28;20031;-63
2022/06/20 00:22:56;;;;;;;4.30;1.38;;;16.60;99.90;;;;;;4969491;28;20102;-65
2022/06/20 00:25:24;;;;;;;2.85;1.20;;;16.80;99.90;;;;;;4969482;28;20495;-64
2022/06/20 00:27:54;;;;;;;6.10;1.52;;;17.00;99.90;;;;;;4970500;28;20031;-64
2022/06/20 00:30:22;;;;;;;2.72;1.20;;;17.00;99.90;;;;;;4970006;28;20031;-64
2022/06/20 00:32:50;;;;;;;2.22;1.13;;;17.00;99.90;;;;;;4969922;28;20069;-66
2022/06/20 00:35:18;;;;;;;5.00;1.45;;;17.20;99.90;;;;;;4970739;28;20097;-65
2022/06/20 00:37:45;;;;;;;2.33;1.13;;;17.40;99.90;;;;;;4970690;28;20023;-63
2022/06/20 00:40:30;;;;;;;3.58;1.10;;;17.70;99.90;;;;;;4967989;28;20015;-66
2022/06/20 00:42:59;;;;;;;10.55;2.10;;;17.80;99.90;;;;;;4969754;28;20047;-65
2022/06/20 00:45:30;;;;;;;3.47;1.50;;;17.90;99.90;;;;;;4953838;28;20022;-63
2022/06/20 00:48:06;;;;;;;5.03;1.52;;;17.90;99.90;;;;;;4971171;28;20026;-64
2022/06/20 00:50:34;;;;;;;6.95;1.95;;;18.20;99.90;;;;;;4964680;28;20044;-64
2022/06/20 00:53:27;;;;;;;4.78;1.58;;;18.50;99.90;;;;;;4966477;28;20091;-63
2022/06/20 00:56:00;;;;;;;6.53;1.88;;;18.70;99.90;;;;;;4963908;28;20081;-64
2022/06/20 00:58:27;;;;;;;7.55;4.18;;;18.60;99.90;;;;;;4970024;28;20078;-65
2022/06/20 01:00:55;;;;;;;5.05;2.20;;;18.70;99.90;;;;;;4969811;28;20027;-65
2022/06/20 01:03:27;;;;;;;5.07;1.70;;;18.70;99.90;;;;;;4970451;28;20022;-62
2022/06/20 01:06:07;;;;;;;5.90;2.17;;;18.70;99.90;;;;;;4970508;28;20051;-62
2022/06/20 01:08:46;;;;;;;6.05;1.70;;;18.60;99.90;;;;;;4970018;28;20916;-65
2022/06/20 01:11:24;;;;;;;4.00;1.83;;;18.70;99.90;;;;;;4969972;28;20038;-64
2022/06/20 01:13:52;;;;;;;6.28;1.70;;;18.80;99.90;;;;;;4968548;28;20104;-64
2022/06/20 01:16:32;;;;;;;7.10;1.60;;;18.90;99.90;;;;;;4970253;28;20019;-62
2022/06/20 01:19:02;;;;;;;5.80;1.65;;;18.80;99.90;;;;;;4969460;28;20097;-62
2022/06/20 01:21:33;;;;;;;5.68;1.83;;;18.80;99.90;;;;;;4970145;28;20025;-63
2022/06/20 01:24:05;;;;;;;5.90;1.70;;;18.80;99.90;;;;;;4969788;28;20034;-62
2022/06/20 01:26:35;;;;;;;6.45;1.73;;;18.80;99.90;;;;;;4971719;28;20054;-63
2022/06/20 01:29:05;;;;;;;6.13;1.52;;;18.70;99.90;;;;;;4965888;28;20019;-65
2022/06/20 01:31:35;;;;;;;4.30;1.63;;;18.80;99.90;;;;;;4952725;28;20085;-63
2022/06/20 01:34:03;;;;;;;6.68;2.08;;;18.80;99.90;;;;;;4969878;28;20042;-63
2022/06/20 01:39:21;;;;;;;3.72;1.33;;;19.00;99.90;;;;;;4968561;28;20033;-65
2022/06/20 01:44:44;;;;;;;7.25;3.03;;;18.80;99.90;;;;;;4969108;28;20038;-65
2022/06/20 01:47:12;;;;;;;6.45;2.10;;;18.90;99.90;;;;;;4972370;28;20017;-65
2022/06/20 01:49:42;;;;;;;6.50;1.95;;;18.80;99.90;;;;;;4977833;28;20073;-64
2022/06/20 01:52:24;;;;;;;6.00;1.42;;;18.60;99.90;;;;;;4973442;28;20056;-65
2022/06/20 01:54:54;;;;;;;;;;;18.70;99.90;;;;;;4969988;28;20113;-64
2022/06/20 01:57:22;;;;;;;5.72;1.40;;;18.80;99.90;;;;;;4968757;28;19920;-65
2022/06/20 02:00:02;;;;;;;4.90;1.35;;;18.90;99.90;;;;;;4967025;28;20491;-63
2022/06/20 02:02:33;;;;;;;6.13;1.58;;;18.80;99.90;;;;;;4967639;28;20356;-63
2022/06/20 02:05:05;;;;;;;6.88;1.55;;;18.80;99.90;;;;;;4964265;28;20518;-63
2022/06/20 02:07:33;;;;;;;4.85;1.40;;;18.80;99.90;;;;;;4970096;28;20019;-65
2022/06/20 02:10:06;;;;;;;7.28;1.48;;;18.80;99.90;;;;;;4970282;28;20053;-63
2022/06/20 02:12:36;;;;;;;7.35;1.60;;;18.80;99.90;;;;;;4970580;28;20049;-64
2022/06/20 02:15:05;;;;;;;7.22;2.05;;;18.90;99.90;;;;;;4966056;28;20385;-64
2022/06/20 02:17:41;;;;;;;7.13;1.58;;;19.40;99.90;;;;;;4970507;28;20031;-63
2022/06/20 02:20:13;;;;;;;11.32;2.63;;;19.80;99.90;;;;;;4970966;28;20033;-64
2022/06/20 02:22:43;;;;;;;11.65;4.32;;;19.90;99.90;;;;;;4971536;28;20471;-62
2022/06/20 02:25:15;;;;;;;5.18;3.35;;;20.00;99.90;;;;;;4971173;28;20391;-64
2022/06/20 02:27:50;;;;;;;5.23;1.97;;;20.20;99.90;;;;;;4971592;28;20027;-65
2022/06/20 02:30:17;;;;;;;6.00;2.00;;;20.20;99.90;;;;;;4969509;28;20296;-64
2022/06/20 02:32:49;;;;;;;3.55;1.17;;;20.40;99.90;;;;;;4968354;28;20812;-63
2022/06/20 02:35:20;;;;;;;3.63;1.08;;;20.50;99.90;;;;;;4969586;28;20039;-64
2022/06/20 02:37:49;;;;;;;4.80;1.10;;;20.60;99.90;;;;;;4969794;28;20158;-64
2022/06/20 02:40:20;;;;;;;3.28;1.00;;;20.40;99.90;;;;;;4970066;28;20034;-63
2022/06/20 02:42:59;;;;;;;2.88;0.93;;;20.30;99.70;;;;;;4966270;28;20513;-64
2022/06/20 02:45:28;;;;;;;3.60;1.00;;;20.30;99.00;;;;;;4969729;28;20454;-64
2022/06/20 02:48:04;;;;;;;3.38;0.95;;;20.40;98.30;;;;;;4969634;28;20388;-64
2022/06/20 02:50:36;;;;;;;2.75;0.95;;;20.40;98.20;;;;;;4973842;28;20030;-63
2022/06/20 02:53:15;;;;;;;3.95;1.10;;;20.40;98.10;;;;;;4957767;28;20084;-64
2022/06/20 02:55:43;;;;;;;4.82;1.38;;;20.40;98.60;;;;;;4968604;28;20023;-64
2022/06/20 02:58:31;;;;;;;2.67;1.20;;;20.20;98.70;;;;;;4974307;28;20078;-64
2022/06/20 03:01:01;;;;;;;3.75;1.40;;;20.20;99.40;;;;;;4969720;28;20729;-64
2022/06/20 03:03:42;;;;;;;3.70;1.40;;;20.10;99.90;;;;;;4970942;28;20035;-64
2022/06/20 03:06:14;;;;;;;6.85;1.20;;;20.10;99.90;;;;;;4968544;28;20107;-64
2022/06/20 03:08:42;;;;;;;6.28;4.53;;;20.10;99.90;;;;;;4963189;28;20031;-63
2022/06/20 03:11:11;;;;;;;7.47;1.85;;;19.90;99.90;;;;;;4973726;28;20042;-64
2022/06/20 03:13:39;;;;;;;5.07;3.38;;;19.90;99.90;;;;;;4970248;28;20071;-64
2022/06/20 03:16:07;;;;;;;6.70;2.25;;;19.80;99.90;;;;;;4973831;28;20121;-64
2022/06/20 03:18:41;;;;;;;6.70;1.48;;;19.70;99.90;;;;;;4973218;28;20042;-64
2022/06/20 03:21:09;;;;;;;4.70;1.70;;;19.60;99.90;;;;;;4967877;28;20594;-63
2022/06/20 03:23:37;;;;;;;3.58;1.60;;;19.50;99.90;;;;;;4973608;28;20034;-62
2022/06/20 03:26:10;;;;;;;6.03;1.63;;;19.40;99.90;;;;;;4971174;28;20041;-64
2022/06/20 03:28:37;;;;;;;2.90;0.98;;;19.30;99.90;;;;;;4973122;28;20037;-64
2022/06/20 03:31:10;;;;;;;3.08;1.17;;;19.40;99.90;;;;;;4973751;28;20054;-63
2022/06/20 03:33:38;;;;;;;4.93;1.80;;;19.50;99.90;;;;;;4974298;28;20118;-63
2022/06/20 03:36:24;;;;;;;5.25;2.70;;;19.50;99.90;;;;;;4974299;28;20027;-63
2022/06/20 03:38:52;;;;;;;3.33;1.23;;;19.40;99.90;;;;;;4974262;28;20031;-63
2022/06/20 03:41:23;;;;;;;6.30;3.05;;;19.40;99.90;;;;;;4973862;28;20022;-63
2022/06/20 03:44:06;;;;;;;6.90;3.13;;;19.40;99.90;;;;;;4973750;28;20106;-63
2022/06/20 03:46:53;;;;;;;5.75;1.75;;;19.50;99.90;;;;;;4973619;28;20333;-63
2022/06/20 03:49:48;;;;;;;8.27;2.67;;;19.50;99.90;;;;;;4973735;28;20023;-63
2022/06/20 03:52:24;;;;;;;6.72;1.45;;;19.40;99.90;;;;;;4973486;28;20026;-63
2022/06/20 03:54:53;;;;;;;5.10;2.00;;;19.10;99.90;;;;;;4973591;28;20069;-63
2022/06/20 03:57:28;;;;;;;5.90;1.45;;;18.80;99.90;;;;;;4973411;28;20498;-63
2022/06/20 04:00:08;;;;;;;3.78;1.00;;;18.50;99.90;;;;;;4967493;28;20894;-63
2022/06/20 04:02:49;;;;;;;2.88;1.33;;;18.10;99.90;;;;;;4967440;28;20049;-64
2022/06/20 04:05:46;;;;;;;3.47;1.20;;;17.80;99.90;;;;;;4967852;28;20081;-64
2022/06/20 04:08:16;;;;;;;5.93;1.30;;;17.70;99.90;;;;;;4968274;28;20085;-63
2022/06/20 04:10:59;;;;;;;6.03;1.98;;;17.50;99.90;;;;;;4967157;28;20026;-64
2022/06/20 04:13:52;;;;;;;3.28;0.90;;;17.30;99.90;;;;;;4967430;28;20023;-64
2022/06/20 04:16:22;;;;;;;4.00;1.83;;;17.20;99.90;;;;;;4968333;28;20042;-65
2022/06/20 04:19:01;;;;;;;4.80;1.60;;;17.10;99.90;;;;;;4972717;28;20038;-63
2022/06/20 04:21:44;;;;;;;4.75;1.40;;;17.10;99.90;;;;;;4971077;28;20057;-63
2022/06/20 04:24:14;;;;;;;3.70;1.23;;;17.00;99.90;;;;;;4972044;28;20594;-63
2022/06/20 04:26:47;;;;;;;3.60;1.33;;;17.00;99.90;;;;;;4972931;28;20466;-64
2022/06/20 04:29:24;;;;;;;4.22;1.15;;;16.90;99.90;;;;;;4971911;28;20019;-64
2022/06/20 04:32:14;;;;;;;3.95;1.00;;;16.90;99.90;;;;;;4972516;28;20114;-64
2022/06/20 04:35:08;;;;;;;4.68;1.30;;;16.90;99.90;;;;;;4970055;28;20398;-64
2022/06/20 04:37:48;;;;;;;4.78;1.30;;;16.80;99.90;;;;;;4972703;28;20019;-64
2022/06/20 04:40:39;;;;;;;5.63;1.40;;;16.80;99.90;;;;;;4969553;28;20379;-64
2022/06/20 04:43:12;;;;;;;4.57;2.28;;;16.90;99.90;;;;;;4970902;28;20396;-64
2022/06/20 04:45:45;;;;;;;4.75;3.40;;;16.80;99.90;;;;;;4971884;28;20015;-64
2022/06/20 04:48:14;;;;;;;5.53;2.55;;;16.70;99.90;;;;;;4973251;28;20066;-64
2022/06/20 04:50:48;;;;;;;7.00;2.33;;;16.70;99.90;;;;;;4955495;28;20115;-63
2022/06/20 04:53:26;;;;;;;22.05;11.73;;;16.70;99.90;;;;;;4974060;28;20684;-64
2022/06/20 04:55:56;;;;;;;15.32;9.93;;;16.70;99.90;;;;;;4976994;28;20438;-63
2022/06/20 04:58:44;;;;;;;5.23;3.13;;;16.60;99.90;;;;;;4628094;28;10001251;-63
2022/06/20 05:01:12;;;;;;;6.18;2.67;;;16.70;99.90;;;;;;4969430;28;20027;-63
2022/06/20 05:04:09;;;;;;;9.40;1.67;;;16.70;99.90;;;;;;4969734;28;20154;-63
2022/06/20 05:06:40;;;;;;;6.28;1.63;;;16.70;99.90;;;;;;4965860;28;20428;-63
2022/06/20 05:09:31;;;;;;;4.68;1.40;;;16.70;99.90;;;;;;4967916;28;20625;-62
2022/06/20 05:12:27;;;;;;;5.50;1.35;;;16.70;99.90;;;;;;4964838;28;20034;-62
2022/06/20 05:15:26;;;;;;;3.90;1.52;;;16.70;99.90;;;;;;4891145;29;20112;-64
2022/06/20 05:17:55;;;;;;;4.63;1.30;;;16.70;99.90;;;;;;4891679;29;20032;-62
2022/06/20 05:20:31;;;;;;;4.50;1.38;;;16.70;99.90;;;;;;4890781;29;20533;-63
2022/06/20 05:23:17;;;;;;;5.03;1.15;;;16.70;99.90;;;;;;4890708;29;20033;-62
2022/06/20 05:25:44;;;;;;;3.72;1.35;;;16.70;99.90;;;;;;4892809;29;20043;-62
2022/06/20 05:28:22;;;;;;;4.25;1.50;;;16.80;99.90;;;;;;4902403;29;20075;-62
2022/06/20 05:30:49;;;;;;;6.72;2.60;;;17.00;99.90;;;;;;5006885;23;20069;-63
2022/06/20 05:33:24;;;;;;;4.63;1.58;;;17.10;99.90;;;;;;4974614;28;20050;-62
2022/06/20 05:35:57;;;;;;;2.88;0.80;;;17.10;99.90;;;;;;4977718;28;20132;-62
2022/06/20 05:38:45;;;;;;;3.40;1.00;;;17.50;99.90;;;;;;4977070;28;20420;-62
2022/06/20 05:41:16;;;;;;;2.70;0.82;;;18.20;99.90;;;;;;4976139;28;20035;-63
2022/06/20 05:43:43;;;;;;;4.95;0.98;;;19.00;99.90;;;;;;4958986;28;20049;-63
2022/06/20 05:46:28;;;;;;;3.38;1.27;;;19.50;99.90;;;;;;4979682;28;20057;-62
2022/06/20 05:49:01;;;;;;;6.82;2.17;;;19.40;99.90;;;;;;4983724;28;20030;-62
2022/06/20 05:51:29;;;;;;;7.68;4.20;;;19.00;99.90;;;;;;4976832;28;20065;-62
2022/06/20 05:54:00;;;;;;;5.05;1.95;;;18.60;99.90;;;;;;4976550;28;20026;-63
2022/06/20 05:56:59;;;;;;;3.47;1.27;;;18.20;99.90;;;;;;4977119;28;20030;-62
2022/06/20 05:59:30;;;;;;;2.05;0.90;;;17.80;99.90;;;;;;4879570;29;20509;-62
2022/06/20 06:02:23;;;;;;;7.95;1.23;;;17.50;99.90;;;;;;4871880;29;20045;-63
2022/06/20 06:05:12;;;;;;;6.87;1.10;;;17.30;99.90;;;;;;4867951;29;20076;-63
2022/06/20 06:07:53;;;;;;;5.25;1.52;;;17.00;99.90;;;;;;4866129;29;20094;-63
2022/06/20 06:11:00;;;;;;;3.63;0.80;;;16.80;99.90;;;;;;4866624;29;20140;-64
2022/06/20 06:13:47;;;;;;;4.13;0.80;;;16.50;99.90;;;;;;4814018;29;20145;-63
2022/06/20 06:19:20;;;;;;;1.70;0.65;;;16.00;99.90;;;;;;4812566;29;20049;-63
2022/06/20 06:21:49;;;;;;;2.47;1.00;;;15.90;99.90;;;;;;4812641;29;20045;-63
2022/06/20 06:24:21;;;;;;;4.43;0.90;;;15.70;99.90;;;;;;4815443;29;20530;-62
2022/06/20 06:26:50;;;;;;;5.00;1.17;;;15.60;99.90;;;;;;4814986;29;20126;-63
2022/06/20 06:29:25;;;;;;;3.53;1.08;;;15.50;99.90;;;;;;4816334;29;20114;-63
2022/06/20 06:32:00;;;;;;;4.72;1.10;;;15.30;99.90;;;;;;4816381;29;20042;-61
2022/06/20 06:35:06;;;;;;;3.05;1.42;;;15.20;99.90;;;;;;4816987;29;20038;-61
2022/06/20 06:37:52;;;;;;;4.53;1.10;;;15.20;99.90;;;;;;4831887;29;20164;-60
2022/06/20 06:40:34;;;;;;;2.63;0.82;;;15.10;99.90;;;;;;4835459;29;20053;-61
2022/06/20 06:43:25;;;;;;;6.00;1.20;;;15.00;99.90;;;;;;4834694;29;20061;-61
2022/06/20 06:45:56;;;;;;;5.45;1.52;;;14.90;99.90;;;;;;4833214;29;20411;-61
2022/06/20 06:48:37;;;;;;;3.58;1.40;;;14.80;99.90;;;;;;4834247;29;20542;-61
2022/06/20 06:51:12;;;;;;;6.78;1.60;;;14.70;99.90;;;;;;4871382;29;20068;-62
2022/06/20 06:53:55;;;;;;;3.35;1.33;;;14.50;99.90;;;;;;4871036;29;20708;-65
2022/06/20 06:56:42;;;;;;;5.45;1.52;;;14.30;99.90;;;;;;4871752;29;20029;-64
2022/06/20 06:59:28;;;;;;;3.50;1.10;;;14.10;99.90;;;;;;4869561;29;20041;-64
2022/06/20 07:01:59;;;;;;;3.53;1.30;;;14.00;99.90;;;;;;4870392;29;20498;-64
2022/06/20 07:05:06;;;;;;;6.78;1.35;;;13.80;99.90;;;;;;4871074;29;20207;-63
2022/06/20 07:07:56;;;;;;;2.40;1.40;;;13.70;99.90;;;;;;4815546;29;20038;-63
2022/06/20 07:10:43;;;;;;;6.97;1.60;;;13.60;99.90;;;;;;4819688;29;20072;-62
2022/06/20 07:13:42;;;;;;;4.70;1.17;;;13.60;99.90;;;;;;4818017;29;20064;-63
2022/06/20 07:16:23;;;;;;;6.70;1.83;;;13.50;99.90;;;;;;4873432;29;20041;-64
2022/06/20 07:18:56;;;;;;;6.25;1.60;;;13.50;99.90;;;;;;4869916;29;20045;-61
2022/06/20 07:21:25;;;;;;;7.18;1.80;;;13.50;99.90;;;;;;4871318;29;20037;-61
2022/06/20 07:24:00;;;;;;;4.72;2.33;;;13.60;99.90;;;;;;4872951;29;20210;-64
2022/06/20 07:26:32;;;;;;;5.85;1.60;;;13.50;99.90;;;;;;4871754;29;20371;-62
2022/06/20 07:29:02;;;;;;;;;;;13.50;99.90;;;;;;4873440;29;20036;-61
2022/06/20 07:31:38;;;;;;;5.88;1.17;;;13.50;99.90;;;;;;4872932;29;19962;-62
2022/06/20 07:34:19;;;;;;;5.25;1.80;;;13.40;99.90;;;;;;4874066;29;20045;-61
2022/06/20 07:36:56;;;;;;;2.13;1.13;;;13.50;99.90;;;;;;4872333;29;20120;-68
2022/06/20 07:39:51;;;;;;;5.63;1.85;;;13.50;99.90;;;;;;4872089;29;20068;-62
2022/06/20 07:42:38;;;;;;;8.55;2.20;;;13.50;99.90;;;;;;4869519;29;20045;-60
2022/06/20 07:45:28;;;;;;;12.00;3.10;;;13.50;99.90;;;;;;4900593;29;20505;-62
2022/06/20 07:48:14;;;;;;;6.82;2.83;;;13.40;99.90;;;;;;4900222;29;20029;-64
2022/06/20 07:50:49;;;;;;;6.50;3.17;;;13.40;99.90;;;;;;4907232;29;20076;-61
2022/06/20 07:53:25;;;;;;;5.85;2.22;;;13.40;99.90;;;;;;4936988;28;20043;-60
2022/06/20 07:56:05;;;;;;;9.48;3.88;;;13.40;99.90;;;;;;4963021;28;20771;-61
2022/06/20 07:58:37;;;;;;;9.88;3.58;;;13.40;99.90;;;;;;4960696;28;21408;-61
2022/06/20 08:01:28;;;;;;;5.28;2.42;;;13.30;99.90;;;;;;4962533;28;20055;-64
2022/06/20 08:04:02;;;;;;;6.03;3.50;;;13.20;99.90;;;;;;4959377;28;20671;-61
2022/06/20 08:06:37;;;;;;;6.80;3.40;;;13.10;99.90;;;;;;4962234;28;20348;-62
2022/06/20 08:09:28;;;;;;;9.07;4.15;;;13.10;99.90;;;;;;4959742;28;20035;-62
2022/06/20 08:12:06;;;;;;;7.38;1.83;;;13.10;99.90;;;;;;4955225;28;20597;-61
2022/06/20 08:14:45;;;;;;;4.68;1.73;;;13.10;99.90;;;;;;4964323;28;20026;-62
2022/06/20 08:17:13;;;;;;;5.85;2.08;;;13.10;99.90;;;;;;4963993;28;20031;-62
2022/06/20 08:19:43;;;;;;;4.95;2.20;;;13.20;99.90;;;;;;4963867;28;20033;-61
2022/06/20 08:22:18;;;;;;;7.88;2.65;;;13.20;99.90;;;;;;4963713;28;20024;-66
2022/06/20 08:25:02;;;;;;;10.35;3.03;;;13.20;99.90;;;;;;4962148;28;20046;-66
2022/06/20 08:27:45;;;;;;;5.38;2.42;;;13.40;99.90;;;;;;4964181;28;20034;-66
2022/06/20 08:30:39;;;;;;;6.25;2.45;;;13.50;99.90;;;;;;4963635;28;20062;-63
2022/06/20 08:33:11;;;;;;;5.85;2.78;;;13.50;99.90;;;;;;4884276;29;20074;-67
2022/06/20 08:35:47;;;;;;;9.43;2.72;;;13.40;99.90;;;;;;4884876;29;20550;-63
2022/06/20 08:38:17;;;;;;;8.75;3.22;;;13.50;99.90;;;;;;4885159;29;20397;-67
2022/06/20 08:41:17;;;;;;;4.68;2.08;;;13.60;99.90;;;;;;4883519;29;20041;-67
2022/06/20 08:43:50;;;;;;;9.00;3.85;;;13.60;99.90;;;;;;4882337;29;20087;-64
2022/06/20 08:47:01;;;;;;;10.50;4.47;;;13.50;99.90;;;;;;4884636;29;20108;-61
2022/06/20 08:49:57;;;;;;;14.80;7.47;;;13.40;99.90;;;;;;4882082;29;20036;-65
2022/06/20 08:53:12;;;;;;;9.52;4.32;;;13.30;99.90;;;;;;4883730;29;20080;-66
2022/06/20 08:56:00;;;;;;;10.77;6.13;;;13.20;99.90;;;;;;4840681;29;20239;-65
2022/06/20 08:58:42;;;;;;;7.50;5.13;;;13.00;99.90;;;;;;4840308;29;20521;-66
2022/06/20 09:01:22;;;;;;;8.25;5.40;;;12.90;99.90;;;;;;4837718;29;20073;-66
2022/06/20 09:03:58;;;;;;;8.90;3.40;;;12.80;99.90;;;;;;4838173;29;20101;-67
2022/06/20 09:06:38;;;;;;;9.25;3.85;;;12.80;99.90;;;;;;4844410;29;20116;-65
2022/06/20 09:09:41;;;;;;;10.30;4.95;;;12.70;99.90;;;;;;4846240;29;20017;-66
2022/06/20 09:12:42;;;;;;;9.13;5.00;;;12.60;99.90;;;;;;4874238;29;20111;-65
2022/06/20 09:15:30;;;;;;;10.50;4.43;;;12.40;99.90;;;;;;4866004;29;20037;-64
2022/06/20 09:18:05;;;;;;;7.10;3.78;;;12.20;99.90;;;;;;4876914;29;20143;-64
2022/06/20 09:21:06;;;;;;;6.60;4.00;;;12.10;99.90;;;;;;4879428;29;20139;-69
2022/06/20 09:23:57;;;;;;;14.30;9.55;;;12.00;99.90;;;;;;4873110;29;20551;-70
2022/06/20 09:26:59;;;;;;;8.25;4.10;;;11.90;99.90;;;;;;4871830;29;20887;-69
2022/06/20 09:29:41;;;;;;;12.32;5.25;;;11.80;99.90;;;;;;4879167;29;20048;-74
2022/06/20 09:32:39;;;;;;;12.05;5.30;;;11.90;99.90;;;;;;4893095;28;20046;-71
2022/06/20 09:35:36;;;;;;;11.40;4.57;;;11.80;99.90;;;;;;4962635;28;20035;-70
2022/06/20 09:38:13;;;;;;;12.98;4.63;;;11.80;99.90;;;;;;4962309;28;20101;-70
2022/06/20 09:40:57;;;;;;;9.38;4.63;;;11.70;99.90;;;;;;4961660;28;20039;-70
2022/06/20 09:43:45;;;;;;;6.68;4.30;;;11.60;99.90;;;;;;4960552;28;20023;-69
2022/06/20 09:46:18;;;;;;;8.18;4.10;;;11.40;99.90;;;;;;4960719;28;20034;-70
2022/06/20 09:48:57;;;;;;;7.68;4.95;;;11.30;99.90;;;;;;4960598;28;20027;-69
2022/06/20 09:51:45;;;;;;;11.88;5.82;;;11.20;99.90;;;;;;4962045;28;20030;-67
2022/06/20 09:54:15;;;;;;;9.18;5.20;;;11.20;99.90;;;;;;4960001;28;20030;-71
2022/06/20 09:56:57;;;;;;;13.75;5.45;;;11.20;99.90;;;;;;4962960;28;20027;-69
2022/06/20 09:59:49;;;;;;;10.38;5.13;;;11.20;99.90;;;;;;4960395;28;20121;-71
2022/06/20 10:02:47;;;;;;;8.32;5.07;;;11.10;99.90;;;;;;4959061;28;20035;-70
2022/06/20 10:05:32;;;;;;;8.77;5.15;;;11.20;99.90;;;;;;4961761;28;20086;-69
2022/06/20 10:08:12;;;;;;;10.23;5.10;;;11.10;99.90;;;;;;4943647;28;20476;-71
2022/06/20 10:10:49;;;;;;;10.73;5.60;;;11.10;99.90;;;;;;4961177;28;20146;-67
2022/06/20 10:13:33;;;;;;;10.23;4.82;;;11.10;99.90;;;;;;4961507;28;20033;-67
2022/06/20 10:16:20;;;;;;;14.57;5.30;;;11.00;99.90;;;;;;4962147;28;20039;-66
2022/06/20 10:19:14;;;;;;;13.02;5.28;;;11.00;99.90;;;;;;4962971;28;20491;-67
2022/06/20 10:22:03;;;;;;;13.93;4.78;;;11.10;99.90;;;;;;4962914;28;20085;-66
2022/06/20 10:24:53;;;;;;;11.90;4.95;;;11.10;99.90;;;;;;4931142;28;20058;-65
2022/06/20 10:27:42;;;;;;;13.75;5.75;;;11.20;99.90;;;;;;4866533;29;20045;-67
2022/06/20 10:30:21;;;;;;;14.43;5.80;;;11.20;99.90;;;;;;4868402;29;20069;-64
2022/06/20 10:33:10;;;;;;;12.82;5.15;;;11.10;99.90;;;;;;4866941;29;20423;-65
2022/06/20 10:36:18;;;;;;;13.90;5.40;;;11.00;99.90;;;;;;4867343;29;20037;-64
2022/06/20 10:39:32;;;;;;;11.15;5.47;;;11.00;99.90;;;;;;4846798;29;20049;-68
2022/06/20 10:42:24;;;;;;;16.48;5.82;;;11.00;99.90;;;;;;4809888;29;20042;-64
2022/06/20 10:45:03;;;;;;;15.07;5.78;;;11.00;99.90;;;;;;4810219;29;20474;-63
2022/06/20 10:48:01;;;;;;;16.67;5.90;;;11.00;99.90;;;;;;4810044;29;20030;-61
2022/06/20 10:50:38;;;;;;;12.02;5.90;;;11.00;99.90;;;;;;4792314;29;20071;-66
2022/06/20 10:53:37;;;;;;;15.27;5.68;;;11.00;99.90;;;;;;4808353;29;20034;-68
2022/06/20 10:56:43;;;;;;;15.82;6.97;;;11.10;99.90;;;;;;4806955;29;20046;-67
2022/06/20 10:59:36;;;;;;;12.75;5.85;;;11.00;99.90;;;;;;4808478;29;20106;-63
2022/06/20 11:02:08;;;;;;;;;;;11.00;99.90;;;;;;4797834;29;20047;-68
2022/06/20 11:04:57;;;;;;;17.38;7.20;;;11.00;99.90;;;;;;4811826;29;19967;-68
2022/06/20 11:07:40;;;;;;;11.63;6.22;;;10.90;99.90;;;;;;4832335;29;20038;-65
2022/06/20 11:10:23;;;;;;;11.27;5.35;;;10.90;99.90;;;;;;4835772;29;20045;-67
2022/06/20 11:13:06;;;;;;;12.30;5.63;;;10.90;99.90;;;;;;4837810;29;20045;-69
2022/06/20 11:15:56;;;;;;;12.13;4.87;;;10.90;99.90;;;;;;4887737;28;20042;-67
2022/06/20 11:18:58;;;;;;;13.35;5.07;;;10.80;99.90;;;;;;4951784;28;20046;-64
2022/06/20 11:21:43;;;;;;;6.18;4.47;;;10.70;99.90;;;;;;4893473;29;20040;-68
2022/06/20 11:24:23;;;;;;;9.18;4.72;;;10.60;99.90;;;;;;4891770;29;20549;-66
2022/06/20 11:27:14;;;;;;;10.98;4.60;;;10.50;99.90;;;;;;4892437;29;20029;-64
2022/06/20 11:29:59;;;;;;;9.43;4.47;;;10.40;99.90;;;;;;4891704;29;20588;-66
2022/06/20 11:32:52;;;;;;;10.55;4.18;;;10.40;99.90;;;;;;4893497;29;20041;-69
2022/06/20 11:35:43;;;;;;;11.95;4.22;;;10.40;99.90;;;;;;4818885;29;20121;-70
2022/06/20 11:38:32;;;;;;;9.52;4.10;;;10.40;99.90;;;;;;4825543;29;20057;-67
2022/06/20 11:41:11;;;;;;;12.20;4.63;;;10.50;99.90;;;;;;4817846;29;20103;-66
2022/06/20 11:43:56;;;;;;;5.13;3.28;;;10.60;99.90;;;;;;4818677;29;20043;-66
2022/06/20 11:46:24;;;;;;;12.38;4.20;;;10.50;99.90;;;;;;4820650;29;20050;-65
2022/06/20 11:48:56;;;;;;;16.13;4.50;;;10.50;99.90;;;;;;4825761;29;20049;-68
2022/06/20 11:51:40;;;;;;;9.02;3.53;;;10.60;99.90;;;;;;4824034;29;20045;-66
2022/06/20 11:54:27;;;;;;;6.82;4.40;;;10.50;99.90;;;;;;4821517;29;20513;-67
2022/06/20 11:57:04;;;;;;;13.57;4.25;;;10.30;99.90;;;;;;4825808;29;20042;-65
2022/06/20 12:00:00;;;;;;;10.63;4.00;;;10.10;99.90;;;;;;4854658;29;20120;-65
2022/06/20 12:02:34;;;;;;;8.15;4.03;;;10.00;99.90;;;;;;4853575;29;20097;-64
2022/06/20 12:05:23;;;;;;;13.05;4.60;;;9.90;99.90;;;;;;4862330;29;20121;-64
2022/06/20 12:08:10;;;;;;;11.23;4.40;;;9.80;99.90;;;;;;4864073;29;20041;-64
2022/06/20 12:10:44;;;;;;;7.75;3.97;;;9.70;99.90;;;;;;4859604;29;20065;-65
2022/06/20 12:13:39;;;;;;;7.38;4.50;;;9.60;99.90;;;;;;4942628;28;20041;-65
2022/06/20 12:16:24;;;;;;;11.57;4.43;;;9.60;99.90;;;;;;4959524;28;20053;-66
2022/06/20 12:24:48;;;;;;;12.50;4.10;;;9.60;99.90;;;;;;4960114;28;20043;-63
2022/06/20 12:27:19;;;;;;;;;;;9.60;99.90;;;;;;4961369;28;20490;-62
2022/06/20 12:29:48;;;;;;;9.50;4.28;;;9.60;99.90;;;;;;4964249;28;20334;-65
2022/06/20 12:32:23;;;;;;;13.45;4.75;;;9.60;99.90;;;;;;4964956;28;20030;-63
2022/06/20 12:34:53;;;;;;;12.32;4.85;;;9.50;99.90;;;;;;4955733;28;20518;-65
2022/06/20 12:37:39;;;;;;;12.90;4.38;;;9.50;99.90;;;;;;4962190;28;20042;-62
2022/06/20 12:40:26;;;;;;;8.13;4.47;;;9.50;99.90;;;;;;4937690;28;20125;-62
2022/06/20 12:43:06;;;;;;;9.27;5.97;;;9.40;99.90;;;;;;4961512;28;20031;-65
2022/06/20 12:46:10;;;;;;;11.27;6.55;;;9.40;99.90;;;;;;4959726;28;20031;-65
2022/06/20 12:48:59;;;;;;;14.20;7.00;;;9.60;99.90;;;;;;4963437;28;20085;-64
2022/06/20 12:51:50;;;;;;;13.63;6.80;;;9.60;99.90;;;;;;4951795;28;20168;-63
2022/06/20 12:54:26;;;;;;;11.48;6.15;;;9.60;99.90;;;;;;4956682;28;20024;-64
2022/06/20 12:57:20;;;;;;;11.20;5.32;;;9.60;99.90;;;;;;4956610;28;20031;-62
2022/06/20 13:00:20;;;;;;;16.45;6.53;;;9.50;99.90;;;;;;4957127;28;20127;-67
2022/06/20 13:03:19;;;;;;;12.52;5.72;;;9.50;99.90;;;;;;4953287;28;20039;-66
2022/06/20 13:06:05;;;;;;;13.00;5.70;;;9.40;99.90;;;;;;4956219;28;20042;-64
2022/06/20 13:08:54;;;;;;;14.55;6.53;;;9.30;99.90;;;;;;4952807;28;20062;-64
2022/06/20 13:11:21;;;;;;;11.30;6.65;;;9.30;99.90;;;;;;4950545;28;20023;-66
2022/06/20 13:14:24;;;;;;;11.98;6.07;;;9.20;99.90;;;;;;4950262;28;20035;-65
2022/06/20 13:17:14;;;;;;;11.02;5.35;;;9.20;99.90;;;;;;4957688;28;20058;-64
2022/06/20 13:19:50;;;;;;;11.52;6.30;;;9.10;99.90;;;;;;4953042;28;20042;-64
2022/06/20 13:22:48;;;;;;;13.95;6.97;;;9.00;99.90;;;;;;4957209;28;20386;-64
2022/06/20 13:25:52;;;;;;;14.43;6.93;;;9.00;99.90;;;;;;4961073;28;20507;-64
2022/06/20 13:28:40;;;;;;;14.65;6.72;;;8.90;99.90;;;;;;4855072;29;20112;-62
2022/06/20 13:31:39;;;;;;;12.55;7.40;;;8.80;99.90;;;;;;4855773;29;20045;-65
2022/06/20 13:34:12;;;;;;;15.15;6.70;;;8.90;99.90;;;;;;4848555;29;20049;-65
2022/06/20 13:36:45;;;;;;;9.18;5.53;;;8.90;99.90;;;;;;4855949;29;20073;-63
2022/06/20 13:39:24;;;;;;;9.82;6.55;;;8.80;99.90;;;;;;4855056;29;20030;-66
2022/06/20 13:42:14;;;;;;;8.93;6.22;;;8.70;99.90;;;;;;4854783;29;20037;-62
2022/06/20 13:45:10;;;;;;;12.48;8.02;;;8.70;99.90;;;;;;4858173;29;20175;-67
2022/06/20 13:48:01;;;;;;;13.05;7.97;;;8.60;99.90;;;;;;4850529;29;20673;-67
2022/06/20 13:51:07;;;;;;;12.15;7.90;;;8.50;99.90;;;;;;4854703;29;20112;-67
2022/06/20 13:54:11;;;;;;;15.45;7.45;;;8.50;99.90;;;;;;4799900;29;20122;-68
2022/06/20 13:57:01;;;;;;;18.48;7.15;;;8.50;99.90;;;;;;4782040;30;20427;-66
2022/06/20 13:59:48;;;;;;;12.70;7.70;;;8.40;99.90;;;;;;4778254;30;20035;-67
2022/06/20 14:03:01;;;;;;;13.00;8.38;;;8.40;99.90;;;;;;4820062;29;20521;-67
2022/06/20 14:05:29;;;;;;;10.55;7.43;;;8.40;99.90;;;;;;4818611;29;20523;-66
2022/06/20 14:08:16;;;;;;;16.15;10.30;;;8.40;99.90;;;;;;4819050;29;20129;-68